WZZ32F EPKK-LOWW
Flight info
| Callsign | WZZ32F |
|---|---|
| Flight time | 0h 36m |
| Altitude | 24000 |
| Route | BABKO DCT VADEX DCT BABNI DCT TUTPI P182 REKLU REKLU3W |
| Aircraft | A21N/M-SDE3FGHIRWY/LB1 |
Departure
| Time | 2026-04-25 09:13 |
|---|---|
| Airport | Kraków John Paul II International Airport (EPKK) |
Arrival
| Time | 2026-04-25 09:49 |
|---|---|
| Airport | Vienna International Airport (LOWW) |
| Time | Latitude | Longitude | Altitude | Speed | Heading |
|---|---|---|---|---|---|
| 2026-04-25 08:51 | 50.07592 | 19.80231 | 799 ft | 0 kts | 348° |
| 2026-04-25 09:09 | 50.07598 | 19.80229 | 799 ft | 1 kts | 348° |
| 2026-04-25 09:09 | 50.07618 | 19.80223 | 799 ft | 3 kts | 356° |
| 2026-04-25 09:10 | 50.07643 | 19.80246 | 799 ft | 5 kts | 57° |
| 2026-04-25 09:10 | 50.07658 | 19.80315 | 799 ft | 7 kts | 77° |
| 2026-04-25 09:10 | 50.07697 | 19.80379 | 799 ft | 9 kts | 7° |
| 2026-04-25 09:10 | 50.07768 | 19.80362 | 799 ft | 10 kts | 348° |
| 2026-04-25 09:11 | 50.07886 | 19.80322 | 799 ft | 10 kts | 348° |
| 2026-04-25 09:11 | 50.07963 | 19.80295 | 799 ft | 12 kts | 346° |
| 2026-04-25 09:11 | 50.08011 | 19.80225 | 799 ft | 3 kts | 283° |
| 2026-04-25 09:12 | 50.08010 | 19.80194 | 799 ft | 0 kts | 258° |
| 2026-04-25 09:12 | 50.08003 | 19.80138 | 799 ft | 31 kts | 257° |
| 2026-04-25 09:12 | 50.07894 | 19.79365 | 800 ft | 110 kts | 257° |
| 2026-04-25 09:12 | 50.07688 | 19.77861 | 874 ft | 164 kts | 255° |
| 2026-04-25 09:13 | 50.07451 | 19.76127 | 1562 ft | 168 kts | 258° |
| 2026-04-25 09:13 | 50.07218 | 19.74388 | 2463 ft | 166 kts | 258° |
| 2026-04-25 09:13 | 50.07000 | 19.72674 | 3312 ft | 161 kts | 259° |
| 2026-04-25 09:13 | 50.06767 | 19.71014 | 4023 ft | 161 kts | 259° |
| 2026-04-25 09:14 | 50.06514 | 19.69257 | 4527 ft | 174 kts | 260° |
| 2026-04-25 09:14 | 50.06231 | 19.67335 | 4990 ft | 192 kts | 257° |
| 2026-04-25 09:14 | 50.05491 | 19.65505 | 5443 ft | 217 kts | 226° |
| 2026-04-25 09:14 | 50.04040 | 19.64409 | 5816 ft | 249 kts | 200° |
| 2026-04-25 09:15 | 50.02328 | 19.63724 | 6440 ft | 264 kts | 199° |
| 2026-04-25 09:15 | 50.00494 | 19.62994 | 7014 ft | 281 kts | 199° |
| 2026-04-25 09:15 | 49.98566 | 19.62219 | 7782 ft | 289 kts | 200° |
| 2026-04-25 09:15 | 49.96625 | 19.61431 | 8611 ft | 295 kts | 199° |
| 2026-04-25 09:16 | 49.94627 | 19.60616 | 9440 ft | 300 kts | 200° |
| 2026-04-25 09:16 | 49.92617 | 19.59796 | 10233 ft | 305 kts | 200° |
| 2026-04-25 09:16 | 49.90527 | 19.58937 | 10826 ft | 319 kts | 200° |
| 2026-04-25 09:16 | 49.88320 | 19.58028 | 11267 ft | 337 kts | 200° |
| 2026-04-25 09:17 | 49.83551 | 19.56082 | 12211 ft | 367 kts | 199° |
| 2026-04-25 09:17 | 49.81062 | 19.55071 | 12972 ft | 371 kts | 199° |
| 2026-04-25 09:17 | 49.78575 | 19.54061 | 13770 ft | 374 kts | 199° |
| 2026-04-25 09:18 | 49.76047 | 19.53032 | 14548 ft | 377 kts | 200° |
| 2026-04-25 09:18 | 49.73509 | 19.51997 | 15277 ft | 381 kts | 200° |
| 2026-04-25 09:18 | 49.70910 | 19.50934 | 16010 ft | 384 kts | 200° |
| 2026-04-25 09:18 | 49.68330 | 19.49882 | 16730 ft | 388 kts | 200° |
| 2026-04-25 09:19 | 49.65713 | 19.48818 | 17401 ft | 391 kts | 200° |
| 2026-04-25 09:19 | 49.63119 | 19.47611 | 18059 ft | 390 kts | 207° |
| 2026-04-25 09:19 | 49.60738 | 19.45688 | 18749 ft | 385 kts | 219° |
| 2026-04-25 09:19 | 49.58705 | 19.43085 | 19408 ft | 380 kts | 230° |
| 2026-04-25 09:20 | 49.56881 | 19.40154 | 20038 ft | 382 kts | 232° |
| 2026-04-25 09:20 | 49.55055 | 19.37127 | 20668 ft | 385 kts | 233° |
| 2026-04-25 09:20 | 49.53226 | 19.34092 | 21234 ft | 389 kts | 232° |
| 2026-04-25 09:20 | 49.51393 | 19.31059 | 21751 ft | 394 kts | 232° |
| 2026-04-25 09:21 | 49.49515 | 19.27972 | 22317 ft | 397 kts | 232° |
| 2026-04-25 09:21 | 49.47606 | 19.24847 | 22897 ft | 399 kts | 232° |
| 2026-04-25 09:21 | 49.45704 | 19.21750 | 23443 ft | 402 kts | 232° |
| 2026-04-25 09:21 | 49.43768 | 19.18604 | 23851 ft | 405 kts | 232° |
| 2026-04-25 09:22 | 49.41857 | 19.15506 | 23965 ft | 404 kts | 232° |
| 2026-04-25 09:22 | 49.39901 | 19.12342 | 23963 ft | 403 kts | 232° |
| 2026-04-25 09:22 | 49.37986 | 19.09247 | 23978 ft | 403 kts | 232° |
| 2026-04-25 09:22 | 49.36051 | 19.06119 | 23981 ft | 403 kts | 232° |
| 2026-04-25 09:23 | 49.34119 | 19.03005 | 23979 ft | 404 kts | 232° |
| 2026-04-25 09:23 | 49.32160 | 18.99850 | 23987 ft | 403 kts | 232° |
| 2026-04-25 09:23 | 49.30225 | 18.96739 | 23987 ft | 403 kts | 232° |
| 2026-04-25 09:23 | 49.28307 | 18.93657 | 23986 ft | 403 kts | 233° |
| 2026-04-25 09:24 | 49.26417 | 18.90470 | 23986 ft | 401 kts | 235° |
| 2026-04-25 09:24 | 49.24652 | 18.87200 | 23998 ft | 399 kts | 238° |
| 2026-04-25 09:24 | 49.22996 | 18.83816 | 23997 ft | 397 kts | 240° |
| 2026-04-25 09:24 | 49.21437 | 18.80354 | 23999 ft | 396 kts | 242° |
| 2026-04-25 09:25 | 49.19872 | 18.76870 | 23999 ft | 396 kts | 241° |
| 2026-04-25 09:25 | 49.18300 | 18.73375 | 24000 ft | 396 kts | 241° |
| 2026-04-25 09:25 | 49.16761 | 18.69960 | 23999 ft | 396 kts | 241° |
| 2026-04-25 09:25 | 49.15199 | 18.66500 | 24003 ft | 396 kts | 242° |
| 2026-04-25 09:26 | 49.13634 | 18.63032 | 24000 ft | 396 kts | 241° |
| 2026-04-25 09:26 | 49.12056 | 18.59541 | 24003 ft | 396 kts | 242° |
| 2026-04-25 09:26 | 49.10492 | 18.56087 | 24004 ft | 397 kts | 242° |
| 2026-04-25 09:26 | 49.08926 | 18.52633 | 24005 ft | 396 kts | 242° |
| 2026-04-25 09:27 | 49.07363 | 18.49190 | 24007 ft | 396 kts | 242° |
| 2026-04-25 09:27 | 49.05807 | 18.45767 | 24008 ft | 396 kts | 242° |
| 2026-04-25 09:27 | 49.04229 | 18.42296 | 24008 ft | 396 kts | 242° |
| 2026-04-25 09:27 | 49.02661 | 18.38855 | 24008 ft | 396 kts | 242° |
| 2026-04-25 09:28 | 49.01087 | 18.35407 | 24007 ft | 396 kts | 242° |
| 2026-04-25 09:28 | 48.99525 | 18.31986 | 24010 ft | 396 kts | 241° |
| 2026-04-25 09:28 | 48.98025 | 18.28508 | 24013 ft | 394 kts | 243° |
| 2026-04-25 09:28 | 48.96654 | 18.24946 | 24015 ft | 392 kts | 246° |
| 2026-04-25 09:29 | 48.95400 | 18.21252 | 24018 ft | 390 kts | 249° |
| 2026-04-25 09:29 | 48.94281 | 18.17482 | 24020 ft | 389 kts | 252° |
| 2026-04-25 09:29 | 48.93219 | 18.13733 | 24021 ft | 390 kts | 252° |
| 2026-04-25 09:29 | 48.92144 | 18.09941 | 24019 ft | 390 kts | 252° |
| 2026-04-25 09:30 | 48.91069 | 18.06151 | 24023 ft | 390 kts | 252° |
| 2026-04-25 09:30 | 48.89991 | 18.02359 | 24024 ft | 390 kts | 252° |
| 2026-04-25 09:30 | 48.88907 | 17.98580 | 24021 ft | 390 kts | 251° |
| 2026-04-25 09:30 | 48.87821 | 17.94816 | 24022 ft | 390 kts | 251° |
| 2026-04-25 09:31 | 48.86737 | 17.91058 | 24023 ft | 390 kts | 251° |
| 2026-04-25 09:31 | 48.85657 | 17.87307 | 24006 ft | 390 kts | 251° |
| 2026-04-25 09:31 | 48.84565 | 17.83504 | 23537 ft | 394 kts | 251° |
| 2026-04-25 09:31 | 48.83475 | 17.79705 | 22714 ft | 397 kts | 251° |
| 2026-04-25 09:32 | 48.82373 | 17.75869 | 22121 ft | 394 kts | 251° |
| 2026-04-25 09:32 | 48.81290 | 17.72109 | 21584 ft | 390 kts | 251° |
| 2026-04-25 09:32 | 48.80209 | 17.68366 | 21070 ft | 386 kts | 251° |
| 2026-04-25 09:32 | 48.79147 | 17.64683 | 20563 ft | 381 kts | 251° |
| 2026-04-25 09:33 | 48.78089 | 17.61018 | 20062 ft | 378 kts | 251° |
| 2026-04-25 09:33 | 48.77036 | 17.57377 | 19565 ft | 374 kts | 251° |
| 2026-04-25 09:33 | 48.76007 | 17.53824 | 19065 ft | 371 kts | 251° |
| 2026-04-25 09:33 | 48.74965 | 17.50233 | 18567 ft | 367 kts | 251° |
| 2026-04-25 09:34 | 48.73950 | 17.46747 | 18087 ft | 364 kts | 251° |
| 2026-04-25 09:34 | 48.72932 | 17.43251 | 17600 ft | 361 kts | 251° |
| 2026-04-25 09:34 | 48.72122 | 17.39699 | 17107 ft | 355 kts | 259° |
| 2026-04-25 09:34 | 48.71721 | 17.36043 | 16629 ft | 350 kts | 269° |
| 2026-04-25 09:35 | 48.71682 | 17.32366 | 16133 ft | 346 kts | 273° |
| 2026-04-25 09:35 | 48.71753 | 17.28742 | 15614 ft | 345 kts | 274° |
| 2026-04-25 09:35 | 48.71555 | 17.25137 | 15116 ft | 348 kts | 261° |
| 2026-04-25 09:35 | 48.70776 | 17.21645 | 14609 ft | 351 kts | 248° |
| 2026-04-25 09:36 | 48.69545 | 17.18467 | 14126 ft | 352 kts | 241° |
| 2026-04-25 09:36 | 48.68204 | 17.15376 | 13642 ft | 352 kts | 240° |
| 2026-04-25 09:36 | 48.66869 | 17.12345 | 13159 ft | 350 kts | 240° |
| 2026-04-25 09:36 | 48.65517 | 17.09269 | 12667 ft | 349 kts | 240° |
| 2026-04-25 09:37 | 48.64173 | 17.06200 | 12187 ft | 347 kts | 240° |
| 2026-04-25 09:37 | 48.62848 | 17.03164 | 11718 ft | 345 kts | 240° |
| 2026-04-25 09:37 | 48.61541 | 17.00169 | 11256 ft | 343 kts | 240° |
| 2026-04-25 09:37 | 48.60219 | 16.97142 | 10794 ft | 341 kts | 241° |
| 2026-04-25 09:38 | 48.59143 | 16.93987 | 10404 ft | 330 kts | 253° |
| 2026-04-25 09:38 | 48.58599 | 16.90771 | 10300 ft | 311 kts | 265° |
| 2026-04-25 09:38 | 48.58390 | 16.87607 | 10205 ft | 295 kts | 269° |
| 2026-04-25 09:38 | 48.58247 | 16.84598 | 10111 ft | 281 kts | 270° |
| 2026-04-25 09:39 | 48.58113 | 16.81708 | 10006 ft | 270 kts | 270° |
| 2026-04-25 09:39 | 48.57977 | 16.78897 | 9654 ft | 268 kts | 270° |
| 2026-04-25 09:39 | 48.57836 | 16.76080 | 9312 ft | 267 kts | 270° |
| 2026-04-25 09:40 | 48.56673 | 16.70864 | 8627 ft | 277 kts | 231° |
| 2026-04-25 09:40 | 48.55049 | 16.69274 | 8286 ft | 285 kts | 202° |
| 2026-04-25 09:40 | 48.53079 | 16.68885 | 7992 ft | 287 kts | 184° |
| 2026-04-25 09:40 | 48.51066 | 16.68922 | 7703 ft | 284 kts | 182° |
| 2026-04-25 09:41 | 48.49114 | 16.68981 | 7408 ft | 282 kts | 182° |
| 2026-04-25 09:41 | 48.47143 | 16.69027 | 7112 ft | 279 kts | 183° |
| 2026-04-25 09:41 | 48.45222 | 16.69057 | 6822 ft | 277 kts | 183° |
| 2026-04-25 09:41 | 48.43299 | 16.69077 | 6528 ft | 275 kts | 184° |
| 2026-04-25 09:42 | 48.41390 | 16.69090 | 6235 ft | 273 kts | 184° |
| 2026-04-25 09:42 | 48.39496 | 16.69101 | 5951 ft | 270 kts | 184° |
| 2026-04-25 09:42 | 48.37632 | 16.69108 | 5677 ft | 268 kts | 184° |
| 2026-04-25 09:42 | 48.35762 | 16.69113 | 5403 ft | 266 kts | 184° |
| 2026-04-25 09:43 | 48.33926 | 16.69117 | 5127 ft | 264 kts | 184° |
| 2026-04-25 09:43 | 48.32075 | 16.69122 | 4845 ft | 262 kts | 184° |
| 2026-04-25 09:43 | 48.30254 | 16.69127 | 4566 ft | 261 kts | 184° |
| 2026-04-25 09:43 | 48.28444 | 16.69132 | 4287 ft | 260 kts | 184° |
| 2026-04-25 09:44 | 48.26646 | 16.69138 | 4009 ft | 258 kts | 184° |
| 2026-04-25 09:44 | 48.24855 | 16.69143 | 3737 ft | 257 kts | 184° |
| 2026-04-25 09:44 | 48.23059 | 16.69150 | 3524 ft | 251 kts | 184° |
| 2026-04-25 09:44 | 48.21368 | 16.69159 | 3484 ft | 239 kts | 184° |
| 2026-04-25 09:45 | 48.19690 | 16.69165 | 3444 ft | 240 kts | 184° |
| 2026-04-25 09:45 | 48.18057 | 16.69169 | 3364 ft | 230 kts | 184° |
| 2026-04-25 09:45 | 48.16484 | 16.69176 | 3223 ft | 222 kts | 184° |
| 2026-04-25 09:45 | 48.14937 | 16.69178 | 3096 ft | 222 kts | 184° |
| 2026-04-25 09:46 | 48.13406 | 16.69179 | 2948 ft | 221 kts | 184° |
| 2026-04-25 09:46 | 48.11853 | 16.69181 | 2746 ft | 222 kts | 184° |
| 2026-04-25 09:46 | 48.10331 | 16.69189 | 2502 ft | 215 kts | 184° |
| 2026-04-25 09:46 | 48.08860 | 16.69193 | 2138 ft | 206 kts | 185° |
| 2026-04-25 09:47 | 48.07571 | 16.68639 | 1896 ft | 182 kts | 222° |
| 2026-04-25 09:47 | 48.07140 | 16.67171 | 1841 ft | 143 kts | 282° |
| 2026-04-25 09:47 | 48.07626 | 16.65898 | 1838 ft | 144 kts | 312° |
| 2026-04-25 09:47 | 48.08261 | 16.64716 | 1653 ft | 145 kts | 311° |
| 2026-04-25 09:48 | 48.08835 | 16.63465 | 1481 ft | 146 kts | 304° |
| 2026-04-25 09:48 | 48.09356 | 16.62180 | 1283 ft | 144 kts | 302° |
| 2026-04-25 09:48 | 48.09854 | 16.60864 | 1106 ft | 145 kts | 296° |
| 2026-04-25 09:48 | 48.10255 | 16.59500 | 952 ft | 143 kts | 301° |
| 2026-04-25 09:49 | 48.10706 | 16.58162 | 728 ft | 144 kts | 300° |
| 2026-04-25 09:49 | 48.11144 | 16.56837 | 606 ft | 137 kts | 297° |
| 2026-04-25 09:49 | 48.11511 | 16.55703 | 583 ft | 96 kts | 295° |
| 2026-04-25 09:49 | 48.11730 | 16.55037 | 583 ft | 44 kts | 297° |
| 2026-04-25 09:50 | 48.11847 | 16.54733 | 581 ft | 26 kts | 310° |
| 2026-04-25 09:50 | 48.11966 | 16.54589 | 578 ft | 11 kts | 326° |
| 2026-04-25 09:50 | 48.12047 | 16.54548 | 576 ft | 13 kts | 16° |
| 2026-04-25 09:50 | 48.12057 | 16.54667 | 578 ft | 13 kts | 115° |
| 2026-04-25 09:51 | 48.12017 | 16.54796 | 579 ft | 14 kts | 117° |
| 2026-04-25 09:51 | 48.11971 | 16.54934 | 580 ft | 15 kts | 116° |
| 2026-04-25 09:51 | 48.11924 | 16.55079 | 581 ft | 15 kts | 116° |
| 2026-04-25 09:51 | 48.11927 | 16.55180 | 583 ft | 9 kts | 52° |
| 2026-04-25 09:52 | 48.11938 | 16.55277 | 582 ft | 11 kts | 111° |
| 2026-04-25 09:52 | 48.11906 | 16.55391 | 582 ft | 12 kts | 99° |
| 2026-04-25 09:52 | 48.11966 | 16.55477 | 583 ft | 13 kts | 26° |
| 2026-04-25 09:52 | 48.12039 | 16.55530 | 582 ft | 9 kts | 26° |
| 2026-04-25 09:53 | 48.12067 | 16.55557 | 581 ft | 4 kts | 75° |
| 2026-04-25 09:53 | 48.12060 | 16.55610 | 581 ft | 0 kts | 114° |
| 2026-04-25 09:53 | 48.12055 | 16.55626 | 581 ft | 1 kts | 115° |
| 2026-04-25 09:53 | 48.12053 | 16.55634 | 581 ft | 0 kts | 115° |